createdAt,value
2019-02-26T00:02:42.378Z,47.00
2019-02-26T00:07:51.562Z,47.88
2019-02-26T00:13:00.834Z,48.00
2019-02-26T00:18:11.719Z,48.00
2019-02-26T00:23:21.955Z,46.00
2019-02-26T00:28:30.203Z,50.25
2019-02-26T00:33:37.246Z,45.89
2019-02-26T00:38:44.478Z,47.44
2019-02-26T00:43:53.527Z,45.00
2019-02-26T00:49:01.464Z,44.88
2019-02-26T00:54:11.582Z,46.00
2019-02-26T00:59:16.577Z,47.43
2019-02-26T01:04:25.119Z,47.25
2019-02-26T01:09:33.979Z,44.22
2019-02-26T01:14:44.070Z,47.88
2019-02-26T01:19:50.445Z,45.25
2019-02-26T01:24:58.477Z,45.50
2019-02-26T01:30:05.558Z,48.71
2019-02-26T01:35:12.940Z,44.00
2019-02-26T01:40:25.812Z,44.08
2019-02-26T01:45:32.417Z,43.00
2019-02-26T01:50:37.826Z,42.33
2019-02-26T01:55:45.953Z,45.88
2019-02-26T02:00:55.471Z,45.56
2019-02-26T02:06:03.127Z,43.87
2019-02-26T02:11:11.560Z,44.63
2019-02-26T02:16:22.126Z,44.00
2019-02-26T02:21:35.472Z,45.67
2019-02-26T02:26:41.130Z,45.00
2019-02-26T02:31:45.891Z,46.00
2019-02-26T02:36:50.142Z,45.00
2019-02-26T02:41:58.869Z,44.25
2019-02-26T02:47:06.776Z,46.00
2019-02-26T02:52:16.548Z,44.44
2019-02-26T02:57:26.954Z,48.00
2019-02-26T03:02:37.679Z,44.75
2019-02-26T03:07:42.442Z,45.50
2019-02-26T03:12:55.261Z,45.50
2019-02-26T03:18:04.145Z,43.75
2019-02-26T03:23:18.999Z,45.00
2019-02-26T03:28:19.179Z,44.00
2019-02-26T03:33:23.451Z,46.00
2019-02-26T03:38:28.904Z,44.25
2019-02-26T03:43:36.484Z,43.75
2019-02-26T03:48:44.677Z,45.00
2019-02-26T03:53:52.262Z,45.00
2019-02-26T03:59:00.134Z,42.75
2019-02-26T04:04:07.676Z,44.00
2019-02-26T04:09:16.601Z,42.75
2019-02-26T04:14:22.910Z,46.00
2019-02-26T04:19:30.508Z,45.00
2019-02-26T04:24:38.073Z,44.89
2019-02-26T04:29:49.310Z,45.00
2019-02-26T04:34:59.631Z,47.13
2019-02-26T04:40:11.897Z,46.50
2019-02-26T04:45:33.052Z,46.00
2019-02-26T04:50:38.623Z,44.00
2019-02-26T04:55:46.717Z,44.25
2019-02-26T05:00:53.617Z,49.67
2019-02-26T05:06:02.089Z,43.38
2019-02-26T05:11:07.550Z,48.00
2019-02-26T05:16:11.830Z,46.67
2019-02-26T05:21:20.349Z,44.00
2019-02-26T05:26:23.731Z,44.67
2019-02-26T05:31:29.806Z,46.00
2019-02-26T05:36:40.273Z,39.38
2019-02-26T05:41:43.301Z,42.00
2019-02-26T05:46:48.027Z,46.00
2019-02-26T05:51:58.814Z,46.37
2019-02-26T05:57:04.645Z,44.00
2019-02-26T06:02:13.261Z,43.87
2019-02-26T06:07:21.724Z,40.00
2019-02-26T06:12:30.507Z,43.80
2019-02-26T06:17:43.074Z,43.00
2019-02-26T06:22:45.131Z,39.50
2019-02-26T06:27:53.770Z,42.00
2019-02-26T06:33:03.932Z,42.62
2019-02-26T06:38:11.673Z,41.25
2019-02-26T06:43:20.467Z,41.37
2019-02-26T06:48:27.562Z,43.00
2019-02-26T06:53:30.512Z,44.33
2019-02-26T06:58:40.616Z,42.00
2019-02-26T07:03:49.712Z,43.00
2019-02-26T07:08:55.023Z,43.00
2019-02-26T07:14:00.615Z,42.25
2019-02-26T07:19:06.523Z,46.75
2019-02-26T07:24:10.971Z,46.75
2019-02-26T07:29:17.998Z,43.75
2019-02-26T07:34:26.856Z,43.75
2019-02-26T07:39:31.199Z,45.50
2019-02-26T07:44:39.986Z,44.75
2019-02-26T07:49:46.894Z,50.44
2019-02-26T07:54:54.783Z,47.25
2019-02-26T08:00:06.550Z,44.78
2019-02-26T08:05:17.018Z,46.13
2019-02-26T08:10:25.641Z,45.00
2019-02-26T08:15:30.303Z,45.33
2019-02-26T08:20:40.380Z,42.75
2019-02-26T08:25:49.939Z,44.63
2019-02-26T08:30:59.823Z,44.00
2019-02-26T08:36:04.311Z,43.00
2019-02-26T08:41:08.987Z,46.00
2019-02-26T08:46:17.138Z,39.13
2019-02-26T08:51:23.199Z,43.25
2019-02-26T08:56:31.565Z,42.38
2019-02-26T09:01:35.523Z,37.00
2019-02-26T09:06:42.529Z,41.25
2019-02-26T09:11:50.346Z,41.50
2019-02-26T09:16:57.813Z,43.33
2019-02-26T09:22:02.586Z,38.00
2019-02-26T09:27:11.006Z,35.13
2019-02-26T09:32:16.166Z,35.50
2019-02-26T09:37:22.021Z,37.13
2019-02-26T09:42:32.472Z,37.13
2019-02-26T09:47:38.795Z,36.00
2019-02-26T09:52:47.884Z,36.56
2019-02-26T09:57:56.713Z,33.00
2019-02-26T10:03:08.002Z,35.75
2019-02-26T10:08:14.687Z,37.25
2019-02-26T10:13:25.174Z,38.00
2019-02-26T10:18:33.129Z,38.75
2019-02-26T10:23:41.418Z,35.00
2019-02-26T10:28:56.859Z,36.88
2019-02-26T10:33:59.131Z,39.00
2019-02-26T10:39:08.589Z,39.38
2019-02-26T10:44:14.781Z,35.00
2019-02-26T10:49:23.582Z,39.63
2019-02-26T10:54:39.500Z,46.75
2019-02-26T10:59:44.914Z,42.25
2019-02-26T11:04:52.110Z,41.00
2019-02-26T11:09:56.235Z,39.75
2019-02-26T11:15:06.486Z,39.00
2019-02-26T11:20:11.757Z,41.00
2019-02-26T11:25:21.224Z,39.00
2019-02-26T11:30:28.577Z,37.75
2019-02-26T11:35:30.614Z,42.67
2019-02-26T11:40:36.655Z,43.00
2019-02-26T11:45:41.972Z,36.00
2019-02-26T11:50:50.413Z,34.13
2019-02-26T11:55:59.147Z,38.25
2019-02-26T12:01:08.290Z,37.60
2019-02-26T12:06:12.682Z,40.00
2019-02-26T12:11:23.304Z,39.82
2019-02-26T12:16:29.756Z,35.00
2019-02-26T12:21:36.925Z,38.00
2019-02-26T12:26:47.010Z,34.00
2019-02-26T12:31:52.898Z,36.50
2019-02-26T12:36:59.520Z,30.00
2019-02-26T12:42:04.122Z,30.37
2019-02-26T12:47:12.899Z,26.75
2019-02-26T12:52:18.699Z,32.00
2019-02-26T12:57:25.938Z,30.00
2019-02-26T13:02:32.911Z,33.00
2019-02-26T13:07:41.771Z,25.50
2019-02-26T13:12:49.559Z,21.33
2019-02-26T13:17:54.601Z,23.87
2019-02-26T13:23:16.231Z,23.38
2019-02-26T13:28:10.858Z,23.00
2019-02-26T13:33:17.822Z,25.33
2019-02-26T13:38:28.994Z,22.71
2019-02-26T13:43:30.683Z,29.00
2019-02-26T13:48:34.099Z,22.67
2019-02-26T13:53:42.808Z,23.00
2019-02-26T13:58:47.341Z,16.71
2019-02-26T14:03:50.923Z,19.00
2019-02-26T14:08:54.434Z,19.67
2019-02-26T14:13:59.772Z,17.00
2019-02-26T14:19:06.418Z,21.37
2019-02-26T14:24:13.907Z,20.25
2019-02-26T14:29:20.724Z,22.87
2019-02-26T14:34:28.022Z,21.78
2019-02-26T14:39:36.381Z,19.25
2019-02-26T14:44:45.425Z,22.00
2019-02-26T14:49:49.762Z,27.25
2019-02-26T14:54:53.220Z,23.00
2019-02-26T14:59:57.626Z,14.00
2019-02-26T15:05:01.604Z,20.00
2019-02-26T15:10:10.895Z,17.86
2019-02-26T15:15:18.334Z,18.00
2019-02-26T15:20:22.823Z,16.80
2019-02-26T15:25:31.059Z,14.00
2019-02-26T15:30:37.339Z,16.43
2019-02-26T15:35:40.847Z,14.67
2019-02-26T15:40:44.202Z,19.50
2019-02-26T15:45:51.908Z,16.00
2019-02-26T15:50:56.360Z,15.29
2019-02-26T15:56:03.632Z,13.29
2019-02-26T16:01:08.641Z,17.50
2019-02-26T16:06:15.310Z,16.12
2019-02-26T16:11:20.609Z,18.00
2019-02-26T16:16:27.032Z,17.00
2019-02-26T16:21:30.778Z,20.50
2019-02-26T16:26:38.456Z,16.00
2019-02-26T16:31:43.972Z,23.00
2019-02-26T16:36:49.403Z,19.00
2019-02-26T16:41:52.713Z,16.25
2019-02-26T16:46:58.141Z,14.71
2019-02-26T16:52:02.822Z,18.14
2019-02-26T16:57:09.607Z,16.25
2019-02-26T17:02:16.632Z,16.37
2019-02-26T17:07:19.675Z,14.33
2019-02-26T17:12:26.945Z,15.67
2019-02-26T17:17:34.372Z,16.12
2019-02-26T17:22:41.677Z,22.29
2019-02-26T17:27:47.068Z,16.57
2019-02-26T17:32:51.619Z,20.14
2019-02-26T17:37:57.227Z,13.71
2019-02-26T17:43:00.710Z,14.50
2019-02-26T17:48:07.779Z,16.50
2019-02-26T17:53:16.389Z,13.71
2019-02-26T17:58:20.190Z,21.75
2019-02-26T18:03:25.736Z,24.00
2019-02-26T18:08:34.683Z,20.62
2019-02-26T18:13:38.292Z,18.00
2019-02-26T18:18:47.179Z,21.00
2019-02-26T18:23:50.790Z,26.00
2019-02-26T18:28:57.806Z,18.43
2019-02-26T18:34:05.716Z,22.37
2019-02-26T18:39:13.766Z,29.37
2019-02-26T18:44:20.532Z,20.33
2019-02-26T18:49:22.938Z,20.75
2019-02-26T18:54:29.471Z,16.75
2019-02-26T18:59:32.612Z,18.00
2019-02-26T19:04:37.823Z,17.29
2019-02-26T19:09:42.682Z,16.75
2019-02-26T19:14:51.442Z,24.12
2019-02-26T19:19:56.652Z,19.62
2019-02-26T19:25:06.836Z,18.12
2019-02-26T19:30:15.108Z,23.75
2019-02-26T19:35:21.130Z,21.25
2019-02-26T19:40:31.569Z,19.87
2019-02-26T19:45:35.246Z,23.00
2019-02-26T19:50:47.757Z,29.36
2019-02-26T19:55:54.774Z,26.87
2019-02-26T20:01:01.929Z,26.29
2019-02-26T20:06:07.219Z,39.25
2019-02-26T20:11:14.998Z,26.60
2019-02-26T20:16:20.088Z,20.43
2019-02-26T20:21:28.167Z,19.37
2019-02-26T20:26:36.787Z,22.00
2019-02-26T20:31:40.659Z,27.50
2019-02-26T20:36:45.020Z,26.00
2019-02-26T20:41:50.143Z,16.71
2019-02-26T20:46:55.643Z,22.75
2019-02-26T20:52:01.226Z,30.00
2019-02-26T20:57:05.435Z,24.00
2019-02-26T21:02:09.712Z,36.25
2019-02-26T21:07:18.331Z,26.00
2019-02-26T21:12:28.619Z,28.29
2019-02-26T21:17:36.643Z,32.00
2019-02-26T21:22:41.458Z,27.50
2019-02-26T21:27:45.709Z,27.50
2019-02-26T21:32:57.773Z,23.87
2019-02-26T21:38:05.775Z,24.00
2019-02-26T21:43:09.119Z,24.50
2019-02-26T21:48:16.534Z,38.56
2019-02-26T21:53:26.335Z,80.56
2019-02-26T21:58:31.195Z,50.00
2019-02-26T22:03:35.867Z,40.50
2019-02-26T22:08:44.706Z,23.25
2019-02-26T22:13:50.850Z,26.50
2019-02-26T22:18:55.740Z,31.50
2019-02-26T22:24:04.627Z,25.50
2019-02-26T22:29:08.958Z,29.33
2019-02-26T22:34:13.051Z,26.50
2019-02-26T22:39:22.258Z,22.50
2019-02-26T22:44:24.048Z,24.50
2019-02-26T22:49:33.109Z,27.25
2019-02-26T22:54:42.767Z,26.43
2019-02-26T22:59:49.206Z,32.88
2019-02-26T23:04:57.516Z,33.38
2019-02-26T23:10:06.000Z,32.00
2019-02-26T23:15:15.912Z,33.00
2019-02-26T23:20:24.320Z,33.00
2019-02-26T23:25:29.595Z,34.50
2019-02-26T23:30:33.190Z,30.00
2019-02-26T23:35:41.683Z,35.25
2019-02-26T23:40:50.171Z,34.75
2019-02-26T23:45:58.488Z,37.89
2019-02-26T23:51:05.773Z,33.25
2019-02-26T23:56:13.728Z,34.75
